createdAt,value
2023-12-30T00:01:02.924Z,8.51
2023-12-30T00:03:33.799Z,8.51
2023-12-30T00:06:05.652Z,8.52
2023-12-30T00:08:36.822Z,8.53
2023-12-30T00:11:09.161Z,8.53
2023-12-30T00:13:42.821Z,8.55
2023-12-30T00:16:14.807Z,8.56
2023-12-30T00:18:46.415Z,8.57
2023-12-30T00:21:22.296Z,8.57
2023-12-30T00:23:53.102Z,8.58
2023-12-30T00:26:24.940Z,8.57
2023-12-30T00:29:08.479Z,8.57
2023-12-30T00:31:39.699Z,8.54
2023-12-30T00:34:10.684Z,8.50
2023-12-30T00:36:45.683Z,8.45
2023-12-30T00:39:16.833Z,8.38
2023-12-30T00:41:47.742Z,8.32
2023-12-30T00:44:19.858Z,8.24
2023-12-30T00:46:50.959Z,8.20
2023-12-30T00:49:22.948Z,8.15
2023-12-30T00:51:54.545Z,8.10
2023-12-30T00:54:27.101Z,8.04
2023-12-30T00:57:01.176Z,7.98
2023-12-30T00:59:32.395Z,7.92
2023-12-30T01:02:03.802Z,7.87
2023-12-30T01:04:35.387Z,7.83
2023-12-30T01:07:06.735Z,7.77
2023-12-30T01:09:37.956Z,7.72
2023-12-30T01:12:10.124Z,7.68
2023-12-30T01:14:41.276Z,7.65
2023-12-30T01:17:12.102Z,7.61
2023-12-30T01:19:42.889Z,7.60
2023-12-30T01:22:13.766Z,7.59
2023-12-30T01:24:44.903Z,7.60
2023-12-30T01:27:15.800Z,7.61
2023-12-30T01:29:47.477Z,7.62
2023-12-30T01:32:18.876Z,7.63
2023-12-30T01:34:50.662Z,7.66
2023-12-30T01:37:22.287Z,7.66
2023-12-30T01:39:53.115Z,7.67
2023-12-30T01:42:24.014Z,7.69
2023-12-30T01:44:54.784Z,7.70
2023-12-30T01:47:26.306Z,7.74
2023-12-30T01:49:57.293Z,7.78
2023-12-30T01:52:29.302Z,7.81
2023-12-30T01:55:00.259Z,7.84
2023-12-30T01:57:31.576Z,7.86
2023-12-30T02:00:04.371Z,7.88
2023-12-30T02:02:43.836Z,7.91
2023-12-30T02:05:16.702Z,7.95
2023-12-30T02:07:50.262Z,7.97
2023-12-30T02:10:21.385Z,7.99
2023-12-30T02:12:52.249Z,8.01
2023-12-30T02:15:26.013Z,8.04
2023-12-30T02:17:57.962Z,8.05
2023-12-30T02:20:29.295Z,8.07
2023-12-30T02:23:00.642Z,8.09
2023-12-30T02:25:31.894Z,8.10
2023-12-30T02:28:03.745Z,8.12
2023-12-30T02:30:35.323Z,8.14
2023-12-30T02:33:08.188Z,8.15
2023-12-30T02:35:43.574Z,8.17
2023-12-30T02:38:14.586Z,8.18
2023-12-30T02:40:46.420Z,8.20
2023-12-30T02:43:17.613Z,8.21
2023-12-30T02:45:48.372Z,8.23
2023-12-30T02:48:20.060Z,8.24
2023-12-30T02:50:51.345Z,8.25
2023-12-30T02:53:22.434Z,8.26
2023-12-30T02:55:53.481Z,8.26
2023-12-30T02:58:24.258Z,8.27
2023-12-30T03:00:56.911Z,8.27
2023-12-30T03:03:27.803Z,8.28
2023-12-30T03:06:02.021Z,8.30
2023-12-30T03:08:33.310Z,8.31
2023-12-30T03:11:06.234Z,8.33
2023-12-30T03:13:37.196Z,8.35
2023-12-30T03:16:10.044Z,8.37
2023-12-30T03:18:41.008Z,8.38
2023-12-30T03:21:14.256Z,8.41
2023-12-30T03:23:45.286Z,8.43
2023-12-30T03:26:16.529Z,8.45
2023-12-30T03:28:48.271Z,8.47
2023-12-30T03:31:27.893Z,8.51
2023-12-30T03:33:59.545Z,8.54
2023-12-30T03:36:30.682Z,8.57
2023-12-30T03:39:01.475Z,8.61
2023-12-30T03:41:33.295Z,8.64
2023-12-30T03:44:04.050Z,8.66
2023-12-30T03:46:35.412Z,8.70
2023-12-30T03:49:06.279Z,8.72
2023-12-30T03:51:38.124Z,8.75
2023-12-30T03:54:09.429Z,8.78
2023-12-30T03:56:42.861Z,8.81
2023-12-30T03:59:14.842Z,8.84
2023-12-30T04:01:47.418Z,8.86
2023-12-30T04:04:18.783Z,8.90
2023-12-30T04:06:50.019Z,8.93
2023-12-30T04:09:20.938Z,8.96
2023-12-30T04:11:51.767Z,8.99
2023-12-30T04:14:22.664Z,9.02
2023-12-30T04:16:56.580Z,9.06
2023-12-30T04:19:28.251Z,9.09
2023-12-30T04:21:59.098Z,9.11
2023-12-30T04:24:31.484Z,9.14
2023-12-30T04:27:02.580Z,9.17
2023-12-30T04:29:33.929Z,9.20
2023-12-30T04:32:05.247Z,9.23
2023-12-30T04:34:37.039Z,9.26
2023-12-30T04:37:08.360Z,9.29
2023-12-30T04:39:39.397Z,9.30
2023-12-30T04:42:10.536Z,9.32
2023-12-30T04:44:41.673Z,9.35
2023-12-30T04:47:12.417Z,9.37
2023-12-30T04:49:43.763Z,9.38
2023-12-30T04:52:14.609Z,9.38
2023-12-30T04:54:46.331Z,9.41
2023-12-30T04:57:18.974Z,9.42
2023-12-30T04:59:49.710Z,9.44
2023-12-30T05:02:21.303Z,9.43
2023-12-30T05:04:52.457Z,9.41
2023-12-30T05:07:23.497Z,9.40
2023-12-30T05:09:54.402Z,9.39
2023-12-30T05:12:26.755Z,9.37
2023-12-30T05:14:57.501Z,9.36
2023-12-30T05:17:32.582Z,9.36
2023-12-30T05:20:01.992Z,9.36
2023-12-30T05:22:32.781Z,9.36
2023-12-30T05:25:03.779Z,9.35
2023-12-30T05:27:35.700Z,9.36
2023-12-30T05:30:08.668Z,9.37
2023-12-30T05:32:40.277Z,9.38
2023-12-30T05:35:11.813Z,9.38
2023-12-30T05:37:42.807Z,9.38
2023-12-30T05:40:17.394Z,9.37
2023-12-30T05:42:48.400Z,9.38
2023-12-30T05:45:20.426Z,9.37
2023-12-30T05:47:51.753Z,9.36
2023-12-30T05:50:22.599Z,9.37
2023-12-30T05:52:53.658Z,9.37
2023-12-30T05:55:24.428Z,9.37
2023-12-30T05:57:56.610Z,9.37
2023-12-30T06:00:27.554Z,9.38
2023-12-30T06:02:58.681Z,9.38
2023-12-30T06:05:30.532Z,9.36
2023-12-30T06:08:01.373Z,9.36
2023-12-30T06:10:33.186Z,9.35
2023-12-30T06:13:05.631Z,9.34
2023-12-30T06:15:36.975Z,9.33
2023-12-30T06:18:08.355Z,9.33
2023-12-30T06:20:39.976Z,9.31
2023-12-30T06:23:11.053Z,9.28
2023-12-30T06:25:42.435Z,9.24
2023-12-30T06:28:14.089Z,9.19
2023-12-30T06:30:44.963Z,9.14
2023-12-30T06:33:16.448Z,9.05
2023-12-30T06:35:49.201Z,8.98
2023-12-30T06:38:20.264Z,8.91
2023-12-30T06:40:51.064Z,8.87
2023-12-30T06:43:21.804Z,8.82
2023-12-30T06:45:52.756Z,8.78
2023-12-30T06:48:23.520Z,8.75
2023-12-30T06:50:55.603Z,8.71
2023-12-30T06:53:26.575Z,8.66
2023-12-30T06:56:01.007Z,8.63
2023-12-30T06:58:33.016Z,8.60
2023-12-30T07:01:06.382Z,8.59
2023-12-30T07:03:37.580Z,8.57
2023-12-30T07:06:09.385Z,8.55
2023-12-30T07:08:40.153Z,8.53
2023-12-30T07:11:11.327Z,8.51
2023-12-30T07:13:42.085Z,8.48
2023-12-30T07:16:13.139Z,8.46
2023-12-30T07:18:44.298Z,8.44
2023-12-30T07:21:17.612Z,8.44
2023-12-30T07:23:48.913Z,8.43
2023-12-30T07:26:19.981Z,8.42
2023-12-30T07:28:50.857Z,8.42
2023-12-30T07:31:21.736Z,8.42
2023-12-30T07:33:52.564Z,8.42
2023-12-30T07:36:25.754Z,8.44
2023-12-30T07:38:56.528Z,8.44
2023-12-30T07:41:27.501Z,8.45
2023-12-30T07:43:58.182Z,8.47
2023-12-30T07:46:28.938Z,8.49
2023-12-30T07:48:59.738Z,8.51
2023-12-30T07:51:30.514Z,8.53
2023-12-30T07:54:01.452Z,8.55
2023-12-30T07:56:32.123Z,8.57
2023-12-30T07:59:03.555Z,8.60
2023-12-30T08:01:34.413Z,8.65
2023-12-30T08:04:05.298Z,8.70
2023-12-30T08:06:36.328Z,8.75
2023-12-30T08:09:07.113Z,8.79
2023-12-30T08:11:50.033Z,8.83
2023-12-30T08:14:29.006Z,8.85
2023-12-30T08:17:00.494Z,8.86
2023-12-30T08:19:31.193Z,8.88
2023-12-30T08:22:01.917Z,8.87
2023-12-30T08:24:33.529Z,8.87
2023-12-30T08:27:04.781Z,8.86
2023-12-30T08:29:36.133Z,8.87
2023-12-30T08:32:08.662Z,8.88
2023-12-30T08:34:39.418Z,8.88
2023-12-30T08:37:10.964Z,8.89
2023-12-30T08:39:42.383Z,8.92
2023-12-30T08:42:13.094Z,8.94
2023-12-30T08:44:46.143Z,8.93
2023-12-30T08:47:20.669Z,8.89
2023-12-30T08:49:51.808Z,8.87
2023-12-30T08:52:23.236Z,8.85
2023-12-30T08:54:54.441Z,8.84
2023-12-30T08:57:26.505Z,8.82
2023-12-30T08:59:58.054Z,8.78
2023-12-30T09:02:28.863Z,8.73
2023-12-30T09:05:00.997Z,8.69
2023-12-30T09:07:32.451Z,8.65
2023-12-30T09:10:03.976Z,8.59
2023-12-30T09:12:36.692Z,8.55
2023-12-30T09:15:08.619Z,8.50
2023-12-30T09:17:40.126Z,8.43
2023-12-30T09:20:12.495Z,8.38
2023-12-30T09:22:43.340Z,8.28
2023-12-30T09:25:14.377Z,8.18
2023-12-30T09:27:47.380Z,8.08
2023-12-30T09:30:19.520Z,8.00
2023-12-30T09:32:50.684Z,7.94
2023-12-30T09:35:22.634Z,7.87
2023-12-30T09:37:53.722Z,7.83
2023-12-30T09:40:25.463Z,7.77
2023-12-30T09:43:06.455Z,7.74
2023-12-30T09:45:41.026Z,7.70
2023-12-30T09:48:13.876Z,7.67
2023-12-30T09:50:45.387Z,7.66
2023-12-30T09:53:17.995Z,7.66
2023-12-30T09:55:50.233Z,7.65
2023-12-30T09:58:21.520Z,7.64
2023-12-30T10:00:52.798Z,7.64
2023-12-30T10:03:25.140Z,7.67
2023-12-30T10:05:59.638Z,7.74
2023-12-30T10:08:31.754Z,7.82
2023-12-30T10:11:03.019Z,7.86
2023-12-30T10:13:34.158Z,7.90
2023-12-30T10:16:07.382Z,7.93
2023-12-30T10:18:39.416Z,7.96
2023-12-30T10:21:10.418Z,7.99
2023-12-30T10:23:48.413Z,8.10
2023-12-30T10:26:21.510Z,8.30
2023-12-30T10:28:52.770Z,8.42
2023-12-30T10:31:23.953Z,8.47
2023-12-30T10:33:56.554Z,8.54
2023-12-30T10:36:30.481Z,8.58
2023-12-30T10:39:02.735Z,8.61
2023-12-30T10:41:36.521Z,8.61
2023-12-30T10:44:07.871Z,8.59
2023-12-30T10:46:43.166Z,8.57
2023-12-30T10:49:19.186Z,8.54
2023-12-30T10:51:55.177Z,8.51
2023-12-30T10:54:35.280Z,8.49
2023-12-30T10:57:11.647Z,8.48
2023-12-30T10:59:45.062Z,8.46
2023-12-30T11:02:16.702Z,8.44
2023-12-30T11:04:51.377Z,8.43
2023-12-30T11:07:27.720Z,8.42
2023-12-30T11:10:00.701Z,8.43
2023-12-30T11:12:37.927Z,8.47
2023-12-30T11:15:25.488Z,8.53
2023-12-30T11:17:57.851Z,8.58
2023-12-30T11:20:32.364Z,8.62
2023-12-30T11:23:05.241Z,8.65
2023-12-30T11:25:43.086Z,8.68
2023-12-30T11:28:21.181Z,8.72
2023-12-30T11:31:01.156Z,8.78
2023-12-30T11:33:32.653Z,8.77
2023-12-30T11:36:05.672Z,8.72
2023-12-30T11:38:38.821Z,8.64
2023-12-30T11:41:10.613Z,8.55
2023-12-30T11:43:41.965Z,8.46
2023-12-30T11:46:14.136Z,8.36
2023-12-30T11:48:46.347Z,8.22
2023-12-30T11:51:26.331Z,8.05
2023-12-30T11:53:58.501Z,7.89
2023-12-30T11:56:29.232Z,7.75
2023-12-30T11:58:59.964Z,7.63
2023-12-30T12:01:31.511Z,7.55
2023-12-30T12:04:02.829Z,7.48
2023-12-30T12:06:33.698Z,7.41
2023-12-30T12:09:05.831Z,7.36
2023-12-30T12:11:37.138Z,7.31
2023-12-30T12:14:08.354Z,7.26
2023-12-30T12:16:39.301Z,7.24
2023-12-30T12:19:11.680Z,7.21
2023-12-30T12:21:42.746Z,7.19
2023-12-30T12:24:14.054Z,7.17
2023-12-30T12:26:45.470Z,7.15
2023-12-30T12:29:18.162Z,7.14
2023-12-30T12:31:49.790Z,7.12
2023-12-30T12:34:25.463Z,7.10
2023-12-30T12:36:56.498Z,7.07
2023-12-30T12:39:27.325Z,7.05
2023-12-30T12:42:00.074Z,7.03
2023-12-30T12:44:32.027Z,7.02
2023-12-30T12:47:02.856Z,7.02
2023-12-30T12:49:36.976Z,7.01
2023-12-30T12:52:10.217Z,6.99
2023-12-30T12:54:40.930Z,7.01
2023-12-30T12:57:12.070Z,7.03
2023-12-30T12:59:43.156Z,7.05
2023-12-30T13:04:47.194Z,7.08
2023-12-30T13:07:18.191Z,7.10
2023-12-30T13:09:56.035Z,7.11
2023-12-30T13:12:45.819Z,7.10
2023-12-30T13:15:38.947Z,7.12
2023-12-30T13:18:31.049Z,7.12
2023-12-30T13:21:23.808Z,7.11
2023-12-30T13:24:15.604Z,7.11
2023-12-30T13:27:10.931Z,7.10
2023-12-30T13:30:06.799Z,7.10
2023-12-30T13:33:02.469Z,7.08
2023-12-30T13:35:53.281Z,7.06
2023-12-30T13:38:51.782Z,7.08
2023-12-30T13:41:44.181Z,7.10
2023-12-30T13:44:42.477Z,7.12
2023-12-30T13:47:52.997Z,7.10
2023-12-30T13:50:53.507Z,7.08
2023-12-30T13:53:47.374Z,7.06
2023-12-30T13:56:43.603Z,7.02
2023-12-30T13:59:35.256Z,6.99
2023-12-30T14:02:29.124Z,6.94
2023-12-30T14:05:29.088Z,6.90
2023-12-30T14:08:32.668Z,6.84
2023-12-30T14:11:34.638Z,6.79
2023-12-30T14:14:28.297Z,6.73
2023-12-30T14:17:20.105Z,6.67
2023-12-30T14:20:14.451Z,6.61
2023-12-30T14:23:06.599Z,6.56
2023-12-30T14:25:58.638Z,6.51
2023-12-30T14:28:50.799Z,6.46
2023-12-30T14:31:42.523Z,6.43
2023-12-30T14:34:34.269Z,6.42
2023-12-30T14:37:25.990Z,6.40
2023-12-30T14:40:18.280Z,6.36
2023-12-30T14:43:10.580Z,6.34
2023-12-30T14:46:02.475Z,6.30
2023-12-30T14:48:54.614Z,6.26
2023-12-30T14:51:47.029Z,6.24
2023-12-30T14:54:39.521Z,6.23
2023-12-30T14:57:31.264Z,6.23
2023-12-30T15:00:25.473Z,6.24
2023-12-30T15:03:17.449Z,6.25
2023-12-30T15:06:09.675Z,6.28
2023-12-30T15:09:02.614Z,6.31
2023-12-30T15:11:55.096Z,6.34
2023-12-30T15:14:46.782Z,6.38
2023-12-30T15:17:38.767Z,6.39
2023-12-30T15:20:30.603Z,6.41
2023-12-30T15:23:23.644Z,6.43
2023-12-30T15:26:15.355Z,6.45
2023-12-30T15:29:07.805Z,6.47
2023-12-30T15:31:59.745Z,6.47
2023-12-30T15:34:51.905Z,6.47
2023-12-30T15:37:45.115Z,6.49
2023-12-30T15:40:39.824Z,6.48
2023-12-30T15:43:32.993Z,6.46
2023-12-30T15:46:25.076Z,6.44
2023-12-30T15:49:17.586Z,6.42
2023-12-30T15:52:11.695Z,6.40
2023-12-30T15:55:03.432Z,6.40
2023-12-30T15:57:56.289Z,6.36
2023-12-30T16:00:48.443Z,6.37
2023-12-30T16:03:40.856Z,6.37
2023-12-30T16:06:34.881Z,6.36
2023-12-30T16:09:27.622Z,6.34
2023-12-30T16:12:19.320Z,6.33
2023-12-30T16:15:12.342Z,6.32
2023-12-30T16:18:05.382Z,6.33
2023-12-30T16:20:57.391Z,6.33
2023-12-30T16:23:49.567Z,6.33
2023-12-30T16:26:42.076Z,6.32
2023-12-30T16:29:35.754Z,6.31
2023-12-30T16:32:27.397Z,6.27
2023-12-30T16:35:19.297Z,6.23
2023-12-30T16:38:13.436Z,6.19
2023-12-30T16:41:05.281Z,6.17
2023-12-30T16:43:58.922Z,6.15
2023-12-30T16:46:50.529Z,6.16
2023-12-30T16:49:42.484Z,6.18
2023-12-30T16:52:35.066Z,6.22
2023-12-30T16:55:27.659Z,6.23
2023-12-30T16:58:20.197Z,6.24
2023-12-30T17:01:12.005Z,6.25
2023-12-30T17:04:03.679Z,6.26
2023-12-30T17:06:56.455Z,6.27
2023-12-30T17:09:48.112Z,6.27
2023-12-30T17:12:40.463Z,6.27
2023-12-30T17:15:32.188Z,6.27
2023-12-30T17:18:24.118Z,6.25
2023-12-30T17:21:15.715Z,6.23
2023-12-30T17:24:09.456Z,6.20
2023-12-30T17:27:06.181Z,6.19
2023-12-30T17:29:58.908Z,6.17
2023-12-30T17:32:51.305Z,6.14
2023-12-30T17:35:44.250Z,6.12
2023-12-30T17:38:36.013Z,6.13
2023-12-30T17:41:27.552Z,6.12
2023-12-30T17:44:19.201Z,6.12
2023-12-30T17:47:11.495Z,6.11
2023-12-30T17:50:03.866Z,6.12
2023-12-30T17:52:55.667Z,6.12
2023-12-30T17:55:51.361Z,6.11
2023-12-30T17:58:43.278Z,6.11
2023-12-30T18:01:35.923Z,6.12
2023-12-30T18:04:28.062Z,6.13
2023-12-30T18:07:19.726Z,6.14
2023-12-30T18:10:12.064Z,6.15
2023-12-30T18:13:04.667Z,6.16
2023-12-30T18:15:59.938Z,6.19
2023-12-30T18:18:51.813Z,6.22
2023-12-30T18:21:43.929Z,6.24
2023-12-30T18:24:35.973Z,6.25
2023-12-30T18:27:27.735Z,6.27
2023-12-30T18:30:20.095Z,6.30
2023-12-30T18:33:15.309Z,6.33
2023-12-30T18:36:08.590Z,6.36
2023-12-30T18:39:00.817Z,6.37
2023-12-30T18:41:52.573Z,6.41
2023-12-30T18:44:44.689Z,6.42
2023-12-30T18:47:37.231Z,6.45
2023-12-30T18:50:29.877Z,6.46
2023-12-30T18:53:22.147Z,6.47
2023-12-30T18:56:14.081Z,6.48
2023-12-30T18:59:05.748Z,6.49
2023-12-30T19:01:57.375Z,6.50
2023-12-30T19:04:51.010Z,6.51
2023-12-30T19:07:43.150Z,6.52
2023-12-30T19:10:34.982Z,6.52
2023-12-30T19:13:26.644Z,6.51
2023-12-30T19:16:19.297Z,6.51
2023-12-30T19:19:11.005Z,6.52
2023-12-30T19:22:03.294Z,6.53
2023-12-30T19:24:55.051Z,6.55
2023-12-30T19:27:47.216Z,6.55
2023-12-30T19:30:38.998Z,6.55
2023-12-30T19:33:32.532Z,6.56
2023-12-30T19:36:25.276Z,6.58
2023-12-30T19:39:18.166Z,6.58
2023-12-30T19:42:09.958Z,6.60
2023-12-30T19:45:02.964Z,6.61
2023-12-30T19:47:55.788Z,6.62
2023-12-30T19:50:47.614Z,6.62
2023-12-30T19:53:44.886Z,6.63
2023-12-30T19:56:38.475Z,6.64
2023-12-30T19:59:31.437Z,6.65
2023-12-30T20:02:23.694Z,6.65
2023-12-30T20:05:16.452Z,6.66
2023-12-30T20:08:09.894Z,6.65
2023-12-30T20:11:01.657Z,6.63
2023-12-30T20:13:53.305Z,6.63
2023-12-30T20:16:45.079Z,6.62
2023-12-30T20:19:39.209Z,6.61
2023-12-30T20:22:31.772Z,6.60
2023-12-30T20:25:23.623Z,6.61
2023-12-30T20:28:15.877Z,6.61
2023-12-30T20:31:07.603Z,6.62
2023-12-30T20:33:59.733Z,6.63
2023-12-30T20:36:52.245Z,6.63
2023-12-30T20:39:43.964Z,6.63
2023-12-30T20:42:36.743Z,6.63
2023-12-30T20:45:29.967Z,6.64
2023-12-30T20:48:22.114Z,6.65
2023-12-30T20:51:14.319Z,6.65
2023-12-30T20:54:06.040Z,6.65
2023-12-30T20:56:58.872Z,6.65
2023-12-30T20:59:50.913Z,6.64
2023-12-30T21:02:43.595Z,6.64
2023-12-30T21:05:35.273Z,6.65
2023-12-30T21:08:27.317Z,6.66
2023-12-30T21:11:19.757Z,6.67
2023-12-30T21:14:13.053Z,6.68
2023-12-30T21:17:05.189Z,6.69
2023-12-30T21:19:59.360Z,6.69
2023-12-30T21:22:51.092Z,6.70
2023-12-30T21:25:44.571Z,6.70
2023-12-30T21:28:36.900Z,6.72
2023-12-30T21:31:32.668Z,6.74
2023-12-30T21:34:24.792Z,6.75
2023-12-30T21:37:16.433Z,6.76
2023-12-30T21:40:11.557Z,6.77
2023-12-30T21:43:03.962Z,6.78
2023-12-30T21:46:03.964Z,6.78
2023-12-30T21:48:59.209Z,6.79
2023-12-30T21:51:52.369Z,6.81
2023-12-30T21:54:48.700Z,6.81
2023-12-30T21:57:41.679Z,6.83
2023-12-30T22:00:33.435Z,6.83
2023-12-30T22:03:25.025Z,6.84
2023-12-30T22:06:16.738Z,6.83
2023-12-30T22:09:09.007Z,6.80
2023-12-30T22:12:01.032Z,6.77
2023-12-30T22:14:54.485Z,6.75
2023-12-30T22:17:46.815Z,6.72
2023-12-30T22:20:39.641Z,6.69
2023-12-30T22:23:31.641Z,6.66
2023-12-30T22:26:23.259Z,6.62
2023-12-30T22:29:16.401Z,6.58
2023-12-30T22:32:08.633Z,6.52
2023-12-30T22:35:04.334Z,6.47
2023-12-30T22:37:56.182Z,6.43
2023-12-30T22:40:51.207Z,6.40
2023-12-30T22:43:43.175Z,6.38
2023-12-30T22:46:37.352Z,6.37
2023-12-30T22:49:29.707Z,6.36
2023-12-30T22:52:22.057Z,6.35
2023-12-30T22:55:14.479Z,6.34
2023-12-30T22:58:06.630Z,6.33
2023-12-30T23:00:58.280Z,6.33
2023-12-30T23:03:50.932Z,6.33
2023-12-30T23:06:42.613Z,6.34
2023-12-30T23:09:34.583Z,6.34
2023-12-30T23:12:27.011Z,6.32
2023-12-30T23:15:19.237Z,6.31
2023-12-30T23:18:11.228Z,6.29
2023-12-30T23:21:03.321Z,6.27
2023-12-30T23:23:55.504Z,6.26
2023-12-30T23:26:47.228Z,6.23
2023-12-30T23:29:39.646Z,6.20
2023-12-30T23:32:34.001Z,6.15
2023-12-30T23:35:26.212Z,6.13
2023-12-30T23:38:17.931Z,6.10
2023-12-30T23:41:09.778Z,6.07
2023-12-30T23:44:01.763Z,6.05
2023-12-30T23:46:53.385Z,6.03
2023-12-30T23:49:45.115Z,6.01
2023-12-30T23:52:37.788Z,5.96
2023-12-30T23:55:29.739Z,5.93
2023-12-30T23:58:21.553Z,5.89
